Time;durP1;ratioP1;P1;durP2;ratioP2;P2;SDS_P1;SDS_P2;PMS_P1;PMS_P2;Temp;Humidity;BMP_temperature;BMP_pressure;BME280_temperature;BME280_humidity;BME280_pressure;Samples;Min_cycle;Max_cycle;Signal;HPM_P1;HPM_P2
2021/03/06 00:00:06;;;;;;;6.47;4.43;;;;;;;1.79;53.97;97842.47;5053338;28;20486;-65
2021/03/06 00:02:32;;;;;;;6.80;4.57;;;;;;;1.97;52.09;97848.41;5053843;28;20716;-66
2021/03/06 00:04:58;;;;;;;9.00;4.73;;;;;;;1.99;52.23;97843.97;5037609;28;20528;-66
2021/03/06 00:07:23;;;;;;;6.87;5.17;;;;;;;1.90;51.81;97850.47;5058921;28;20182;-65
2021/03/06 00:09:49;;;;;;;7.27;5.10;;;;;;;1.81;52.19;97848.38;5035757;28;20217;-67
2021/03/06 00:12:15;;;;;;;7.30;4.57;;;;;;;1.84;52.54;97851.63;5053587;28;20183;-65
2021/03/06 00:14:40;;;;;;;8.10;4.70;;;;;;;1.88;51.71;97842.00;5052803;28;20209;-66
2021/03/06 00:17:06;;;;;;;6.63;4.53;;;;;;;1.74;52.65;97842.72;5053325;28;20614;-64
2021/03/06 00:19:31;;;;;;;5.37;4.20;;;;;;;1.73;52.60;97847.97;5054126;28;20291;-66
2021/03/06 00:21:57;;;;;;;5.77;4.87;;;;;;;1.69;52.86;97842.97;5054846;28;20186;-66
2021/03/06 00:24:23;;;;;;;7.03;4.80;;;;;;;1.64;52.70;97854.47;5057280;28;20558;-66
2021/03/06 00:26:49;;;;;;;7.00;4.67;;;;;;;1.51;52.75;97843.94;5058549;28;20704;-66
2021/03/06 00:29:14;;;;;;;5.47;4.17;;;;;;;1.54;52.68;97843.75;5064484;28;20285;-66
2021/03/06 00:31:40;;;;;;;7.43;5.10;;;;;;;1.78;52.56;97848.53;5056938;28;20268;-66
2021/03/06 00:34:06;;;;;;;5.97;4.80;;;;;;;1.87;53.03;97848.06;5059986;28;20457;-65
2021/03/06 00:36:32;;;;;;;8.57;4.97;;;;;;;1.99;52.04;97841.41;5059024;28;20187;-66
2021/03/06 00:38:58;;;;;;;6.80;4.43;;;;;;;1.87;52.30;97850.66;5054586;28;20445;-66
2021/03/06 00:41:23;;;;;;;8.97;5.23;;;;;;;1.88;52.18;97841.16;5067711;28;20194;-66
2021/03/06 00:43:49;;;;;;;6.30;4.73;;;;;;;1.86;51.61;97843.81;5058307;28;20198;-66
2021/03/06 00:46:15;;;;;;;6.07;4.73;;;;;;;1.70;51.74;97843.81;5061457;28;20181;-65
2021/03/06 00:48:41;;;;;;;6.33;4.40;;;;;;;1.82;51.37;97847.47;5065232;28;20609;-65
2021/03/06 00:51:07;;;;;;;6.07;4.57;;;;;;;1.96;51.34;97849.31;5048147;28;20183;-65
2021/03/06 00:53:36;;;;;;;7.87;5.30;;;;;;;2.05;50.53;97850.56;5059875;28;20237;-65
2021/03/06 00:56:05;;;;;;;7.00;4.80;;;;;;;1.84;51.06;97846.47;5055325;28;20437;-70
2021/03/06 00:58:31;;;;;;;6.40;5.03;;;;;;;2.05;50.86;97853.16;5054220;28;20455;-66
2021/03/06 01:00:58;;;;;;;6.60;5.27;;;;;;;2.02;50.18;97841.25;5052154;28;20429;-65
2021/03/06 01:03:24;;;;;;;7.30;5.30;;;;;;;1.99;50.65;97843.97;5054311;28;20211;-66
2021/03/06 01:05:49;;;;;;;6.63;5.43;;;;;;;1.74;51.43;97840.13;5060125;28;20468;-66
2021/03/06 01:08:15;;;;;;;7.20;5.13;;;;;;;1.89;50.67;97843.63;5058369;28;20506;-66
2021/03/06 01:10:43;;;;;;;6.73;4.90;;;;;;;1.99;50.22;97842.25;5027249;28;20197;-65
2021/03/06 01:13:09;;;;;;;6.07;4.73;;;;;;;1.87;51.25;97845.50;5045063;28;20286;-66
2021/03/06 01:15:35;;;;;;;7.30;5.33;;;;;;;1.79;50.50;97842.47;5053410;28;20468;-64
2021/03/06 01:18:02;;;;;;;7.17;5.40;;;;;;;1.91;50.64;97841.81;5052220;28;20460;-66
2021/03/06 01:20:28;;;;;;;6.90;5.23;;;;;;;1.92;50.83;97840.91;5075413;28;20429;-64
2021/03/06 01:22:53;;;;;;;8.73;5.43;;;;;;;1.38;50.77;97829.06;5065426;28;20560;-65
2021/03/06 01:25:19;;;;;;;8.20;5.17;;;;;;;1.79;51.09;97832.97;5053291;28;20421;-65
2021/03/06 01:27:45;;;;;;;6.63;4.80;;;;;;;1.85;50.26;97834.41;5052214;28;20542;-65
2021/03/06 01:30:11;;;;;;;7.97;5.20;;;;;;;1.76;50.22;97835.72;5050261;28;20200;-65
2021/03/06 01:32:37;;;;;;;5.80;5.00;;;;;;;1.81;50.64;97832.88;5052597;28;20191;-65
2021/03/06 01:35:10;;;;;;;7.90;5.70;;;;;;;1.88;50.10;97833.38;5052265;28;20467;-65
2021/03/06 01:37:37;;;;;;;7.00;5.57;;;;;;;1.89;50.29;97832.47;5052313;28;20425;-65
2021/03/06 01:40:09;;;;;;;7.10;5.40;;;;;;;1.90;49.83;97829.78;5050353;28;20440;-65
2021/03/06 01:42:35;;;;;;;5.13;4.63;;;;;;;1.68;49.99;97823.19;5052819;28;20432;-65
2021/03/06 01:45:01;;;;;;;9.50;5.80;;;;;;;1.69;50.72;97831.81;5055041;28;20421;-64
2021/03/06 01:47:26;;;;;;;6.80;5.57;;;;;;;1.69;50.23;97827.44;5054486;28;20190;-64
2021/03/06 01:49:52;;;;;;;8.80;5.63;;;;;;;1.81;49.97;97836.31;5045710;28;20693;-64
2021/03/06 01:52:17;;;;;;;8.77;5.20;;;;;;;1.80;50.27;97832.06;5050803;28;20266;-65
2021/03/06 01:54:44;;;;;;;9.60;5.43;;;;;;;1.77;49.72;97833.94;5052400;28;20597;-65
2021/03/06 01:57:10;;;;;;;5.40;4.60;;;;;;;1.71;49.81;97829.13;5052064;28;20240;-64
2021/03/06 01:59:36;;;;;;;6.60;5.30;;;;;;;1.69;50.12;97829.22;5051318;28;20826;-65
2021/03/06 02:02:04;;;;;;;6.60;5.47;;;;;;;1.72;49.97;97825.63;5050522;28;20195;-64
2021/03/06 02:04:30;;;;;;;6.50;5.80;;;;;;;1.60;50.33;97821.94;5051383;28;20436;-64
2021/03/06 02:06:55;;;;;;;7.50;5.90;;;;;;;1.32;51.50;97811.28;5059954;28;20459;-63
2021/03/06 02:09:22;;;;;;;9.17;5.50;;;;;;;1.47;50.54;97814.00;5051284;28;20199;-64
2021/03/06 02:12:06;;;;;;;9.47;5.97;;;;;;;1.41;50.06;97817.75;5053186;28;20192;-63
2021/03/06 02:14:47;;;;;;;8.83;5.83;;;;;;;1.36;50.74;97815.41;5059048;28;20555;-64
2021/03/06 02:17:28;;;;;;;10.17;6.60;;;;;;;1.32;50.83;97806.13;5042656;28;20438;-64
2021/03/06 02:20:23;;;;;;;11.47;7.33;;;;;;;1.31;50.87;97812.22;5049336;28;20453;-65
2021/03/06 02:23:11;;;;;;;13.97;7.93;;;;;;;1.24;51.32;97810.88;5045523;28;20465;-64
2021/03/06 02:25:58;;;;;;;19.27;7.03;;;;;;;1.30;51.46;97807.13;5045643;28;20421;-64
2021/03/06 02:28:35;;;;;;;8.17;6.00;;;;;;;1.23;51.09;97804.84;5076033;28;20447;-65
2021/03/06 02:31:03;;;;;;;9.60;6.80;;;;;;;1.28;51.05;97801.22;5082644;28;20795;-64
2021/03/06 02:33:31;;;;;;;9.37;6.20;;;;;;;1.29;51.04;97801.13;5049952;28;20437;-64
2021/03/06 02:36:00;;;;;;;8.50;6.00;;;;;;;1.11;51.03;97802.06;5049391;28;20431;-63
2021/03/06 02:38:28;;;;;;;9.20;5.77;;;;;;;1.18;50.94;97800.84;5049748;28;20459;-64
2021/03/06 02:40:54;;;;;;;9.80;6.60;;;;;;;1.14;51.15;97796.72;5051559;28;20432;-64
2021/03/06 02:43:21;;;;;;;8.93;5.83;;;;;;;1.14;51.09;97789.00;5056404;28;20444;-64
2021/03/06 02:45:47;;;;;;;6.53;5.30;;;;;;;1.16;50.72;97792.34;5051105;28;20430;-64
2021/03/06 02:48:12;;;;;;;7.43;5.60;;;;;;;1.04;50.90;97799.78;5049674;28;20939;-64
2021/03/06 02:50:38;;;;;;;7.10;5.70;;;;;;;0.95;50.61;97795.09;5049860;28;20508;-64
2021/03/06 02:53:04;;;;;;;9.37;5.70;;;;;;;0.95;50.58;97800.28;5053206;28;20194;-64
2021/03/06 02:55:29;;;;;;;7.50;5.87;;;;;;;0.96;50.10;97793.34;5055850;28;20207;-64
2021/03/06 02:58:17;;;;;;;6.60;5.80;;;;;;;0.92;50.81;97795.25;5050269;28;20210;-64
2021/03/06 03:00:45;;;;;;;7.47;5.60;;;;;;;0.92;50.74;97795.25;5037505;28;20186;-65
2021/03/06 03:03:11;;;;;;;10.10;6.13;;;;;;;0.80;50.47;97795.88;5054369;28;20954;-63
2021/03/06 03:05:43;;;;;;;7.63;5.70;;;;;;;0.77;49.91;97797.69;5062652;28;20422;-64
2021/03/06 03:08:10;;;;;;;6.03;5.27;;;;;;;0.83;50.54;97790.56;5053578;28;20202;-65
2021/03/06 03:10:39;;;;;;;9.33;5.70;;;;;;;0.78;50.51;97785.63;5046983;28;20437;-63
2021/03/06 03:13:46;;;;;;;8.90;6.67;;;;;;;0.54;50.96;97787.66;5087222;28;20478;-63
2021/03/06 03:16:23;;;;;;;7.80;5.10;;;;;;;0.32;51.19;97783.56;5045029;28;20443;-64
2021/03/06 03:18:54;;;;;;;8.03;6.00;;;;;;;0.45;51.63;97788.94;5054782;28;20815;-65
2021/03/06 03:21:20;;;;;;;10.50;6.03;;;;;;;0.59;51.15;97783.13;5054523;28;20428;-61
2021/03/06 03:24:07;;;;;;;8.00;5.73;;;;;;;0.25;52.42;97787.34;5055426;28;20516;-64
2021/03/06 03:26:36;;;;;;;8.27;6.40;;;;;;;0.34;52.67;97781.75;5055490;28;20193;-61
2021/03/06 03:29:02;;;;;;;8.60;6.27;;;;;;;0.60;52.12;97784.81;5065637;28;20456;-64
2021/03/06 03:31:29;;;;;;;10.10;6.47;;;;;;;0.70;52.11;97786.00;5054900;28;20790;-65
2021/03/06 03:33:55;;;;;;;10.23;6.90;;;;;;;0.73;51.74;97785.88;5055110;28;20492;-61
2021/03/06 03:36:23;;;;;;;9.27;6.43;;;;;;;0.78;51.78;97785.63;5059544;28;20439;-62
2021/03/06 03:38:49;;;;;;;11.33;7.00;;;;;;;0.83;51.75;97778.47;5058979;28;20791;-64
2021/03/06 03:41:14;;;;;;;11.93;7.30;;;;;;;0.78;51.99;97783.06;5059926;28;20536;-66
2021/03/06 03:43:41;;;;;;;9.93;6.83;;;;;;;0.77;52.36;97787.38;5059493;28;20806;-61
2021/03/06 03:46:07;;;;;;;9.40;7.10;;;;;;;0.60;53.88;97789.97;5053434;28;20190;-62
2021/03/06 03:48:34;;;;;;;11.50;6.57;;;;;;;0.58;53.90;97786.63;5037762;28;20450;-64
2021/03/06 03:51:01;;;;;;;10.60;7.00;;;;;;;0.61;53.89;97791.63;5054659;28;20429;-62
2021/03/06 03:53:27;;;;;;;11.13;6.40;;;;;;;0.65;53.96;97797.47;5055222;28;20780;-62
2021/03/06 03:55:53;;;;;;;8.07;6.10;;;;;;;0.64;53.56;97798.38;5053180;28;20422;-62
2021/03/06 03:58:19;;;;;;;9.17;6.40;;;;;;;0.63;54.21;97800.13;5054089;28;20568;-63
2021/03/06 04:00:44;;;;;;;7.90;6.00;;;;;;;0.67;53.92;97796.47;5054199;28;20240;-63
2021/03/06 04:03:15;;;;;;;9.07;6.37;;;;;;;0.60;54.32;97800.28;5053856;28;20431;-64
2021/03/06 04:05:40;;;;;;;9.70;6.70;;;;;;;0.64;54.12;97804.38;5056100;28;20180;-62
2021/03/06 04:08:06;;;;;;;13.00;6.50;;;;;;;0.66;53.64;97799.97;5053916;28;20447;-63
2021/03/06 04:10:31;;;;;;;10.27;7.03;;;;;;;0.50;55.34;97809.38;5052863;28;20179;-65
2021/03/06 04:12:57;;;;;;;8.90;6.73;;;;;;;0.52;54.77;97810.13;5053704;28;20239;-62
2021/03/06 04:15:24;;;;;;;10.10;6.33;;;;;;;0.51;54.33;97814.47;5043951;28;20672;-62
2021/03/06 04:17:50;;;;;;;11.73;7.10;;;;;;;0.53;54.41;97809.22;5052972;28;20183;-61
2021/03/06 04:20:21;;;;;;;8.70;6.87;;;;;;;0.48;54.72;97824.09;5052975;28;20468;-63
2021/03/06 04:22:46;;;;;;;11.47;7.03;;;;;;;0.44;54.74;97824.25;5054194;28;20421;-63
2021/03/06 04:25:12;;;;;;;10.93;7.43;;;;;;;0.36;55.00;97818.63;5053267;28;20422;-61
2021/03/06 04:27:38;;;;;;;7.70;6.20;;;;;;;0.31;55.09;97820.56;5054129;28;20187;-61
2021/03/06 04:30:07;;;;;;;10.80;6.57;;;;;;;0.24;55.55;97819.22;5052325;28;20519;-62
2021/03/06 04:32:33;;;;;;;12.60;6.67;;;;;;;0.27;55.62;97816.47;5052902;28;20436;-59
2021/03/06 04:34:58;;;;;;;10.80;6.60;;;;;;;0.30;55.07;97818.91;5053135;28;21000;-63
2021/03/06 04:37:24;;;;;;;8.47;6.10;;;;;;;0.27;55.34;97819.03;5086013;28;20192;-62
2021/03/06 04:39:49;;;;;;;9.60;6.63;;;;;;;0.24;55.60;97822.59;5052298;28;20208;-62
2021/03/06 04:42:15;;;;;;;14.43;6.43;;;;;;;0.21;55.09;97824.50;5060537;28;20327;-60
2021/03/06 04:44:41;;;;;;;8.33;6.90;;;;;;;0.25;55.34;97820.88;5054460;28;20198;-62
2021/03/06 04:47:06;;;;;;;8.30;6.57;;;;;;;0.15;55.37;97810.16;5053943;28;20652;-63
2021/03/06 04:49:32;;;;;;;8.57;6.50;;;;;;;0.18;55.34;97819.47;5051415;28;20304;-62
2021/03/06 04:51:58;;;;;;;9.30;6.60;;;;;;;0.19;55.17;97824.56;5055189;28;20198;-63
2021/03/06 04:54:24;;;;;;;8.83;6.70;;;;;;;0.19;55.07;97821.16;5053447;28;20466;-64
2021/03/06 04:56:50;;;;;;;11.90;6.43;;;;;;;0.17;55.14;97822.97;5055378;28;20442;-63
2021/03/06 04:59:16;;;;;;;10.07;6.50;;;;;;;0.16;55.16;97827.31;5066103;28;20442;-62
2021/03/06 05:01:42;;;;;;;8.90;6.57;;;;;;;0.16;55.21;97827.31;5058683;28;20250;-63
2021/03/06 05:04:08;;;;;;;8.77;6.67;;;;;;;0.07;55.49;97827.72;5068043;28;20418;-65
2021/03/06 05:06:33;;;;;;;10.90;6.90;;;;;;;0.05;55.27;97827.78;5073537;28;20187;-61
2021/03/06 05:08:59;;;;;;;7.47;6.73;;;;;;;0.06;55.26;97826.88;5052717;28;20215;-61
2021/03/06 05:11:25;;;;;;;9.00;6.00;;;;;;;0.06;55.13;97826.88;5052391;28;20187;-64
2021/03/06 05:13:50;;;;;;;10.20;6.20;;;;;;;0.06;55.03;97821.72;5053466;28;20721;-60
2021/03/06 05:16:16;;;;;;;10.77;5.90;;;;;;;0.04;55.15;97818.38;5061490;28;20186;-63
2021/03/06 05:18:42;;;;;;;11.10;6.43;;;;;;;-0.01;55.14;97820.34;5070437;28;20710;-63
2021/03/06 05:21:08;;;;;;;11.17;7.17;;;;;;;-0.07;55.18;97833.50;5067974;28;20196;-62
2021/03/06 05:23:34;;;;;;;9.07;6.23;;;;;;;-0.12;55.53;97826.00;5061496;28;20416;-63
2021/03/06 05:25:59;;;;;;;8.50;6.00;;;;;;;-0.10;55.51;97824.19;5051906;28;20280;-63
2021/03/06 05:28:25;;;;;;;9.17;6.63;;;;;;;-0.25;56.31;97823.13;5052483;28;20267;-60
2021/03/06 05:30:51;;;;;;;10.60;6.10;;;;;;;-0.12;55.76;97822.56;5051667;28;20649;-62
2021/03/06 05:33:17;;;;;;;10.30;6.47;;;;;;;-0.22;55.87;97825.56;5051818;28;20199;-63
2021/03/06 05:35:43;;;;;;;9.07;6.90;;;;;;;-0.19;56.12;97828.03;5050730;28;20467;-61
2021/03/06 05:38:09;;;;;;;10.23;7.07;;;;;;;-0.21;56.12;97827.25;5052475;28;21231;-64
2021/03/06 05:40:38;;;;;;;8.50;6.70;;;;;;;-0.26;56.28;97831.78;5059541;28;20203;-61
2021/03/06 05:43:04;;;;;;;8.43;6.30;;;;;;;-0.22;55.80;97833.31;5060423;28;20521;-61
2021/03/06 05:45:31;;;;;;;8.63;7.00;;;;;;;-0.14;56.07;97826.97;5058671;28;20795;-63
2021/03/06 05:47:59;;;;;;;10.97;7.30;;;;;;;-0.16;55.69;97837.34;5052075;28;20434;-62
2021/03/06 05:50:26;;;;;;;10.67;7.20;;;;;;;-0.16;56.04;97837.34;5052081;28;20784;-62
2021/03/06 05:52:52;;;;;;;10.13;7.00;;;;;;;-0.24;55.52;97829.94;5084605;28;20435;-62
2021/03/06 05:55:19;;;;;;;9.73;6.47;;;;;;;-0.26;55.93;97831.78;5031518;28;20473;-62
2021/03/06 05:57:45;;;;;;;6.93;6.00;;;;;;;-0.24;55.89;97829.94;5052981;28;20196;-61
2021/03/06 06:00:14;;;;;;;8.90;6.50;;;;;;;-0.27;55.98;97819.81;5050368;28;20425;-63
2021/03/06 06:02:40;;;;;;;8.90;6.07;;;;;;;-0.30;56.04;97827.66;5051144;28;20428;-60
2021/03/06 06:05:06;;;;;;;7.43;5.87;;;;;;;-0.32;55.84;97821.75;5053313;28;20413;-63
2021/03/06 06:07:35;;;;;;;10.03;7.23;;;;;;;-0.30;56.19;97819.94;5056965;28;20198;-62
2021/03/06 06:10:01;;;;;;;9.60;6.30;;;;;;;-0.25;55.87;97823.13;5050713;28;20534;-61
2021/03/06 06:12:26;;;;;;;9.87;7.07;;;;;;;-0.29;55.80;97816.47;5050604;28;20435;-62
2021/03/06 06:14:52;;;;;;;8.27;6.43;;;;;;;-0.24;55.65;97823.97;5049694;28;20464;-64
2021/03/06 06:17:18;;;;;;;8.80;6.70;;;;;;;-0.06;55.83;97827.44;5050538;28;20184;-61
2021/03/06 06:19:43;;;;;;;7.57;6.23;;;;;;;0.30;55.08;97829.22;5051063;28;20206;-65
2021/03/06 06:22:21;;;;;;;9.80;7.13;;;;;;;0.51;54.23;97821.34;5041432;28;20237;-63
2021/03/06 06:24:47;;;;;;;10.00;7.00;;;;;;;0.63;53.81;97820.75;5049984;28;20712;-60
2021/03/06 06:27:33;;;;;;;11.30;6.80;;;;;;;0.48;53.33;97826.69;5050874;28;20456;-62
2021/03/06 06:30:00;;;;;;;7.67;6.70;;;;;;;0.31;53.60;97833.47;5051171;28;20934;-62
2021/03/06 06:32:27;;;;;;;9.27;6.67;;;;;;;0.37;53.49;97830.63;5033283;28;20875;-63
2021/03/06 06:35:00;;;;;;;10.80;6.20;;;;;;;0.31;53.96;97836.06;5046006;28;20464;-60
2021/03/06 06:37:26;;;;;;;11.30;6.93;;;;;;;0.50;53.68;97832.59;5050184;28;20431;-60
2021/03/06 06:39:52;;;;;;;8.10;6.43;;;;;;;0.57;53.45;97842.53;5050209;28;20455;-63
2021/03/06 06:42:18;;;;;;;9.80;7.13;;;;;;;0.52;53.31;97836.78;5057663;28;20193;-64
2021/03/06 06:44:54;;;;;;;9.90;7.80;;;;;;;0.61;52.83;97841.47;5051200;28;20722;-64
2021/03/06 06:47:20;;;;;;;9.93;7.37;;;;;;;0.64;53.23;97845.66;5049586;28;20430;-62
2021/03/06 06:49:51;;;;;;;10.10;7.73;;;;;;;0.54;53.24;97841.84;5050104;28;20479;-65
2021/03/06 06:52:18;;;;;;;9.97;7.73;;;;;;;0.63;52.81;97835.41;5054985;28;20280;-61
2021/03/06 06:54:52;;;;;;;9.67;7.20;;;;;;;0.37;53.61;97840.94;5055086;28;20456;-64
2021/03/06 06:57:18;;;;;;;9.03;6.23;;;;;;;0.61;52.41;97841.47;5053373;28;20439;-61
2021/03/06 07:00:05;;;;;;;8.30;6.30;;;;;;;0.48;52.96;97842.16;5059217;28;20454;-66
2021/03/06 07:02:31;;;;;;;9.10;6.93;;;;;;;0.63;52.36;97836.22;5051109;28;20615;-61
2021/03/06 07:04:58;;;;;;;10.00;6.40;;;;;;;0.42;52.96;97846.69;5050476;28;20428;-62
2021/03/06 07:07:35;;;;;;;9.10;7.13;;;;;;;0.72;52.91;97842.69;5066039;28;20283;-63
2021/03/06 07:10:06;;;;;;;10.50;6.93;;;;;;;0.73;52.98;97846.94;5050162;28;20458;-63
2021/03/06 07:12:36;;;;;;;10.33;7.40;;;;;;;0.77;52.62;97849.31;5051098;28;20967;-61
2021/03/06 07:15:11;;;;;;;14.63;8.17;;;;;;;0.84;52.65;97846.44;5050084;28;20814;-63
2021/03/06 07:17:38;;;;;;;9.70;7.00;;;;;;;1.01;51.47;97856.75;5050552;28;20783;-61
2021/03/06 07:20:10;;;;;;;10.20;7.20;;;;;;;1.13;52.13;97867.41;5058132;28;21008;-64
2021/03/06 07:22:35;;;;;;;13.53;7.30;;;;;;;1.10;52.18;97864.97;5051449;28;20480;-63
2021/03/06 07:25:02;;;;;;;11.07;7.37;;;;;;;1.11;51.95;97869.22;5059670;28;20429;-62
2021/03/06 07:27:27;;;;;;;9.87;7.77;;;;;;;1.28;51.65;97871.75;5051580;28;20198;-63
2021/03/06 07:29:53;;;;;;;16.57;8.00;;;;;;;1.63;51.39;97874.31;5051371;28;20455;-62
2021/03/06 07:32:20;;;;;;;12.73;7.80;;;;;;;1.72;49.79;97878.13;5050583;28;20231;-64
2021/03/06 07:34:47;;;;;;;9.77;7.73;;;;;;;1.62;50.46;97872.63;5058517;28;20307;-64
2021/03/06 07:37:13;;;;;;;10.60;7.13;;;;;;;1.83;50.27;97881.00;5052302;28;20444;-63
2021/03/06 07:39:42;;;;;;;9.67;7.27;;;;;;;1.76;50.39;97876.25;5043200;28;20812;-63
2021/03/06 07:42:36;;;;;;;9.73;6.60;;;;;;;1.86;49.64;97877.44;5067210;28;20846;-65
2021/03/06 07:45:03;;;;;;;8.87;6.77;;;;;;;1.90;49.45;97889.25;5033450;28;20432;-64
2021/03/06 07:47:36;;;;;;;17.50;7.30;;;;;;;2.11;49.33;97886.47;5049818;28;20920;-62
2021/03/06 07:50:04;;;;;;;9.73;7.23;;;;;;;2.11;49.20;97889.88;5051985;28;20445;-65
2021/03/06 07:52:32;;;;;;;12.80;7.87;;;;;;;2.32;48.92;97889.66;5055135;28;20426;-65
2021/03/06 07:54:58;;;;;;;11.80;8.40;;;;;;;2.30;48.65;97889.72;5061261;28;20975;-65
2021/03/06 07:57:23;;;;;;;20.67;9.33;;;;;;;2.17;49.16;97898.22;5053781;28;20428;-64
2021/03/06 07:59:54;;;;;;;41.37;18.73;;;;;;;2.33;49.66;97893.91;5062263;28;20540;-61
2021/03/06 08:02:30;;;;;;;14.70;8.57;;;;;;;2.72;47.74;97889.19;5054406;28;20245;-64
2021/03/06 08:04:55;;;;;;;11.37;6.77;;;;;;;2.66;47.52;97887.78;5055054;28;20417;-65
2021/03/06 08:07:40;;;;;;;9.93;7.60;;;;;;;2.86;47.91;97896.16;5060148;28;20487;-65
2021/03/06 08:10:07;;;;;;;47.80;15.37;;;;;;;3.13;48.31;97904.13;5053622;28;20199;-64
2021/03/06 08:12:34;;;;;;;23.70;10.50;;;;;;;3.11;47.29;97885.25;5054136;28;20444;-64
2021/03/06 08:15:29;;;;;;;10.70;7.60;;;;;;;3.18;46.10;97891.72;5054161;28;20548;-65
2021/03/06 08:18:00;;;;;;;53.37;27.40;;;;;;;3.63;45.38;97901.25;5053185;28;20508;-64
2021/03/06 08:20:28;;;;;;;10.73;7.73;;;;;;;3.48;46.18;97898.63;5061869;28;20787;-63
2021/03/06 08:23:22;;;;;;;10.73;7.20;;;;;;;3.27;46.23;97897.31;5052905;28;20433;-63
2021/03/06 08:26:19;;;;;;;9.00;6.80;;;;;;;3.64;46.29;97902.91;5049961;28;20505;-65
2021/03/06 08:28:45;;;;;;;13.40;7.07;;;;;;;3.72;46.03;97907.66;5053228;28;20860;-63
2021/03/06 08:31:36;;;;;;;9.50;7.17;;;;;;;3.68;46.17;97906.97;5052516;28;20455;-64
2021/03/06 08:34:27;;;;;;;16.93;9.50;;;;;;;3.94;44.75;97904.56;5052494;28;20219;-65
2021/03/06 08:39:40;;;;;;;9.23;7.30;;;;;;;3.86;45.27;97899.03;5051293;28;20453;-66
2021/03/06 08:42:06;;;;;;;13.10;7.40;;;;;;;3.67;45.42;97900.13;5058879;28;21000;-66
2021/03/06 08:44:31;;;;;;;12.40;8.57;;;;;;;3.75;45.25;97910.88;5050178;28;20285;-65
2021/03/06 08:46:57;;;;;;;10.93;8.10;;;;;;;4.13;45.12;97905.13;5051416;28;20229;-64
2021/03/06 08:49:23;;;;;;;12.33;8.87;;;;;;;4.26;44.43;97906.97;5051574;28;20705;-67
2021/03/06 08:51:50;;;;;;;12.93;8.33;;;;;;;4.43;44.58;97901.53;5051176;28;20218;-63
2021/03/06 08:54:16;;;;;;;10.97;7.83;;;;;;;4.23;43.95;97909.75;5060036;28;20572;-65
2021/03/06 08:56:42;;;;;;;11.17;8.20;;;;;;;3.78;44.80;97907.25;5057969;28;21059;-62
2021/03/06 08:59:07;;;;;;;12.40;8.67;;;;;;;4.42;44.24;97918.03;5059913;28;20294;-64
2021/03/06 09:01:34;;;;;;;9.67;7.50;;;;;;;4.55;43.49;97910.31;5052374;28;20190;-63
2021/03/06 09:04:00;;;;;;;8.73;6.83;;;;;;;4.68;43.34;97910.34;5052289;28;20236;-63
2021/03/06 09:06:39;;;;;;;12.93;7.30;;;;;;;4.36;42.78;97910.66;5061165;28;20936;-65
2021/03/06 09:09:08;;;;;;;8.40;5.97;;;;;;;4.52;42.87;97918.28;5052349;28;20499;-64
2021/03/06 09:11:53;;;;;;;8.20;5.60;;;;;;;4.27;42.33;97909.44;5052426;28;20830;-64
2021/03/06 09:14:24;;;;;;;7.63;6.10;;;;;;;4.37;41.97;97907.13;5039851;28;20461;-65
2021/03/06 09:16:50;;;;;;;8.87;6.30;;;;;;;4.56;41.92;97913.75;5059609;28;20475;-63
2021/03/06 09:19:23;;;;;;;8.60;6.17;;;;;;;4.85;41.55;97898.06;5052965;28;20948;-64
2021/03/06 09:21:59;;;;;;;12.73;6.90;;;;;;;4.49;40.82;97899.50;5052041;28;20478;-66
2021/03/06 09:24:25;;;;;;;9.30;6.50;;;;;;;4.72;40.79;97901.44;5046281;28;20433;-65
2021/03/06 09:26:53;;;;;;;8.70;5.70;;;;;;;4.78;40.50;97896.81;5068060;28;20413;-62
2021/03/06 09:29:19;;;;;;;10.73;6.70;;;;;;;5.07;40.64;97895.72;5035764;28;20636;-64
2021/03/06 09:31:50;;;;;;;6.27;5.40;;;;;;;5.02;40.86;97892.63;5051159;28;20467;-62
2021/03/06 09:34:15;;;;;;;7.90;6.37;;;;;;;5.11;41.32;97901.56;5076250;28;20252;-63
2021/03/06 09:36:41;;;;;;;6.57;5.67;;;;;;;5.17;40.67;97895.97;5072824;28;20425;-62
2021/03/06 09:39:07;;;;;;;8.50;6.17;;;;;;;5.15;39.93;97894.41;5052577;28;20285;-63
2021/03/06 09:41:37;;;;;;;9.30;6.17;;;;;;;5.02;40.04;97891.75;5054031;28;20187;-63
2021/03/06 09:44:04;;;;;;;10.03;6.57;;;;;;;5.15;39.31;97886.63;5055489;28;20813;-63
2021/03/06 09:46:32;;;;;;;7.77;5.83;;;;;;;5.23;39.84;97889.53;5065460;28;20492;-63
2021/03/06 09:49:13;;;;;;;7.80;5.77;;;;;;;5.36;38.88;97887.78;5076241;28;20458;-65
2021/03/06 09:51:55;;;;;;;6.67;5.40;;;;;;;5.05;39.90;97887.19;5051131;28;20425;-65
2021/03/06 09:54:24;;;;;;;5.90;5.30;;;;;;;5.75;38.13;97884.34;5046787;28;20932;-64
2021/03/06 09:56:54;;;;;;;9.60;6.03;;;;;;;5.52;38.96;97887.56;5053151;28;20524;-66
2021/03/06 09:59:23;;;;;;;7.03;5.30;;;;;;;5.62;38.98;97892.13;5053209;28;20453;-66
2021/03/06 10:01:49;;;;;;;6.07;5.30;;;;;;;5.56;38.04;97890.78;5052338;28;20436;-65
2021/03/06 10:04:17;;;;;;;7.60;5.93;;;;;;;5.73;37.77;97899.22;5053346;28;20426;-66
2021/03/06 10:06:45;;;;;;;7.50;5.23;;;;;;;5.52;39.28;97889.34;5056895;28;20203;-66
2021/03/06 10:09:12;;;;;;;9.00;5.90;;;;;;;6.11;37.63;97895.78;5027391;28;20683;-65
2021/03/06 10:11:46;;;;;;;8.67;5.90;;;;;;;5.89;37.65;97885.97;5051902;28;20433;-65
2021/03/06 10:14:17;;;;;;;8.00;5.43;;;;;;;5.93;37.48;97882.25;5051727;28;20465;-67
2021/03/06 10:16:51;;;;;;;11.47;5.80;;;;;;;5.79;38.32;97881.44;5060404;28;20474;-66
2021/03/06 10:19:18;;;;;;;7.40;6.00;;;;;;;5.89;37.75;97884.22;5046423;28;20579;-63
2021/03/06 10:22:01;;;;;;;9.10;6.27;;;;;;;5.85;37.33;97885.38;5059197;28;20424;-68
2021/03/06 10:24:26;;;;;;;10.83;6.13;;;;;;;6.02;36.85;97886.84;5052622;28;20425;-67
2021/03/06 10:27:00;;;;;;;8.67;6.17;;;;;;;6.25;36.89;97890.44;5084901;28;20432;-66
2021/03/06 10:29:28;;;;;;;7.67;5.50;;;;;;;6.28;36.71;97884.16;5050739;28;20664;-65
2021/03/06 10:32:12;;;;;;;10.97;5.70;;;;;;;6.36;36.53;97888.84;5059661;28;20429;-65
2021/03/06 10:34:37;;;;;;;7.73;5.90;;;;;;;6.67;35.35;97876.22;5051560;28;20468;-65
2021/03/06 10:37:10;;;;;;;9.70;7.40;;;;;;;6.38;35.71;97884.34;5054550;28;20424;-64
2021/03/06 10:40:02;;;;;;;5.80;5.20;;;;;;;5.86;35.87;97889.63;5063702;28;20209;-65
2021/03/06 10:42:45;;;;;;;8.40;4.93;;;;;;;5.97;35.13;97881.91;5053938;28;20437;-67
2021/03/06 10:45:29;;;;;;;8.90;5.90;;;;;;;6.29;35.58;97889.28;5043998;28;20917;-65
2021/03/06 10:47:57;;;;;;;7.80;5.17;;;;;;;6.31;35.18;97886.56;5051893;28;20441;-66
2021/03/06 10:50:31;;;;;;;7.17;4.83;;;;;;;6.51;34.16;97877.34;5051451;28;20514;-66
2021/03/06 10:53:13;;;;;;;7.63;4.97;;;;;;;6.59;34.06;97882.00;5060756;28;20436;-65
2021/03/06 10:55:39;;;;;;;7.53;5.30;;;;;;;6.96;33.99;97881.91;5051881;28;20468;-65
2021/03/06 10:58:06;;;;;;;11.00;5.87;;;;;;;6.75;33.89;97884.31;5032734;28;20433;-64
2021/03/06 11:00:32;;;;;;;9.97;5.47;;;;;;;6.63;34.10;97875.59;5045303;28;20262;-67
2021/03/06 11:02:59;;;;;;;6.50;5.47;;;;;;;6.60;34.15;97874.06;5053919;28;20956;-66
2021/03/06 11:05:26;;;;;;;6.27;5.27;;;;;;;6.23;33.91;97873.28;5063739;28;20432;-65
2021/03/06 11:07:53;;;;;;;5.70;5.10;;;;;;;6.69;33.82;97885.59;5052782;28;20428;-66
2021/03/06 11:10:20;;;;;;;7.53;5.40;;;;;;;7.02;33.18;97867.59;5050797;28;20471;-66
2021/03/06 11:12:51;;;;;;;7.27;5.37;;;;;;;7.36;33.10;97865.91;5050542;28;20425;-65
2021/03/06 11:15:18;;;;;;;6.80;5.20;;;;;;;7.53;33.26;97862.03;5048495;28;20476;-66
2021/03/06 11:17:51;;;;;;;8.33;5.47;;;;;;;7.42;33.17;97866.38;5051105;28;20475;-67
2021/03/06 11:20:18;;;;;;;7.90;5.60;;;;;;;7.94;32.33;97865.00;5047139;28;20533;-66
2021/03/06 11:22:44;;;;;;;6.33;5.40;;;;;;;7.96;32.54;97849.19;5058368;28;21007;-69
2021/03/06 11:25:11;;;;;;;8.17;5.17;;;;;;;8.12;31.61;97860.13;5056163;28;20417;-66
2021/03/06 11:27:51;;;;;;;9.90;5.90;;;;;;;8.02;32.51;97856.56;5053829;28;20429;-66
2021/03/06 11:30:31;;;;;;;7.90;6.00;;;;;;;7.65;32.53;97859.44;5053148;28;20903;-65
2021/03/06 11:32:58;;;;;;;6.17;4.83;;;;;;;7.77;31.83;97852.41;5075603;28;20425;-65
2021/03/06 11:35:24;;;;;;;7.53;5.27;;;;;;;8.08;31.22;97855.25;5058769;28;20452;-68
2021/03/06 11:37:51;;;;;;;9.07;5.53;;;;;;;8.68;31.63;97849.69;5053293;28;20422;-67
2021/03/06 11:40:19;;;;;;;7.03;4.80;;;;;;;8.37;31.11;97847.72;5026383;28;20453;-64
2021/03/06 11:42:45;;;;;;;6.10;4.77;;;;;;;8.44;29.34;97854.09;5052051;28;20437;-64
2021/03/06 11:45:12;;;;;;;6.40;4.80;;;;;;;8.53;29.31;97842.13;5054916;28;20851;-63
2021/03/06 11:47:38;;;;;;;5.03;4.53;;;;;;;8.97;29.49;97838.63;5054402;28;20527;-66
2021/03/06 11:50:08;;;;;;;6.07;5.10;;;;;;;8.49;29.14;97835.50;5053817;28;20528;-65